Temp: 14.2°C   Baro: 1018.8mb
  Wind: 4.9mph   Dir: N (1°)
  Rain: 0.0mm (0.0mm/hr)
  Solar: 279W/m2  Hum: 70%
 
Bath Spa Weather Station Historical Data
Daily Summary for June 13, 2019 Units:  English    Metric   Both
Daily Weekly Monthly Yearly Custom
  High: Low: Average:
Temperature: 56.9 °F 50 °F 52.8 °F
Dew Point: 53.8 °F 48 °F 50.3 °F
Humidity: 94% 85.8% 91%
Wind Speed: 10.2mph 0mph 4.1mph
Wind Gust: 21mph - -
Wind- - WSW
Pressure: 29.74 in 29.63 in -
Precipitation: 0.32 in    
Historical Graphs
 
 
Tabular Data for June 13, 2019
Time Temperature Dew Point Pressure Wind Wind Speed Wind Gust Humidity Rainfall Rate (Hourly) solar
00:04 51.3 °F 49.3 °F 29.73 in NW 1.7 mph 5 mph 93% 0.04 in 0 W/m2
00:09 51.3 °F 49.3 °F 29.73 in WNW 1.1 mph 5 mph 93% 0.04 in 0 W/m2
00:14 51.3 °F 49.3 °F 29.73 in WNW 0.6 mph 5 mph 93% 0.04 in 0 W/m2
00:19 51.3 °F 49.3 °F 29.73 in WNW 1.8 mph 4 mph 93% 0.04 in 0 W/m2
00:24 51.3 °F 49.3 °F 29.73 in WNW 1.3 mph 4 mph 93% 0.04 in 0 W/m2
00:29 51.3 °F 49.3 °F 29.73 in WNW 1.8 mph 6 mph 93% 0.04 in 0 W/m2
00:34 51.1 °F 49.1 °F 29.72 in WNW 2.5 mph 5 mph 93% 0.04 in 0 W/m2
00:39 50.9 °F 48.9 °F 29.72 in WNW 1.5 mph 5 mph 93% 0.04 in 0 W/m2
00:44 50.9 °F 48.9 °F 29.72 in West 3 mph 7 mph 93% 0.04 in 0 W/m2
00:49 50.9 °F 48.9 °F 29.72 in West 3.9 mph 7 mph 93% 0.04 in 0 W/m2
00:54 50.9 °F 48.9 °F 29.72 in WSW 3.9 mph 8 mph 93% 0.04 in 0 W/m2
00:59 50.9 °F 48.9 °F 29.72 in WSW 2 mph 8 mph 93% 0.03 in 0 W/m2
01:04 50.8 °F 48.8 °F 29.72 in WSW 2.6 mph 6 mph 93% 0.03 in 0 W/m2
01:09 50.7 °F 48.7 °F 29.71 in WSW 1.9 mph 5 mph 93% 0.03 in 0 W/m2
01:14 50.7 °F 48.7 °F 29.71 in WSW 1.4 mph 4 mph 93% 0.02 in 0 W/m2
01:19 50.7 °F 48.7 °F 29.71 in WSW 2.6 mph 5 mph 93% 0.04 in 0 W/m2
01:24 50.6 °F 48.7 °F 29.71 in WSW 0.3 mph 5 mph 93% 0.03 in 0 W/m2
01:29 50.6 °F 48.7 °F 29.71 in WSW 2.1 mph 5 mph 93% 0.03 in 0 W/m2
01:34 50.5 °F 48.6 °F 29.70 in WSW 2.9 mph 6 mph 93% 0.04 in 0 W/m2
01:39 50.5 °F 48.6 °F 29.70 in WSW 1.3 mph 5 mph 93% 0.04 in 0 W/m2
01:44 50.5 °F 48.6 °F 29.70 in WSW 2.4 mph 7 mph 93% 0.03 in 0 W/m2
01:49 50.5 °F 48.6 °F 29.70 in WSW 3.2 mph 6 mph 93% 0.04 in 0 W/m2
01:54 50.4 °F 48.4 °F 29.70 in WSW 2.5 mph 6 mph 93% 0.04 in 0 W/m2
01:59 50.4 °F 48.4 °F 29.70 in WSW 3.8 mph 7 mph 93% 0.03 in 0 W/m2
02:04 50.3 °F 48.3 °F 29.70 in WSW 3.9 mph 8 mph 93% 0.03 in 0 W/m2
02:09 50.2 °F 48.2 °F 29.69 in WSW 2.7 mph 7 mph 93% 0.03 in 0 W/m2
02:14 50.2 °F 48.2 °F 29.69 in WSW 1.7 mph 7 mph 93% 0.04 in 0 W/m2
02:19 50.1 °F 48.1 °F 29.69 in WSW 2.4 mph 6 mph 93% 0.02 in 0 W/m2
02:24 50 °F 48 °F 29.69 in WSW 3.2 mph 7 mph 93% 0.02 in 0 W/m2
02:29 50 °F 48 °F 29.68 in WSW 3.6 mph 10 mph 93% 0.03 in 0 W/m2
02:34 50 °F 48 °F 29.68 in WSW 2.7 mph 7 mph 93% 0.02 in 0 W/m2
02:39 50 °F 48 °F 29.68 in WSW 0.9 mph 7 mph 93% 0.02 in 0 W/m2
02:44 50 °F 48 °F 29.68 in WSW 1 mph 4 mph 93% 0.04 in 0 W/m2
02:49 50 °F 48 °F 29.67 in WSW 2.5 mph 6 mph 93% 0.04 in 0 W/m2
02:54 50 °F 48 °F 29.67 in WSW 1.6 mph 6 mph 93% 0.03 in 0 W/m2
02:59 50 °F 48 °F 29.68 in WSW 0.5 mph 4 mph 93% 0.03 in 0 W/m2
03:04 50 °F 48 °F 29.67 in WSW 1 mph 4 mph 93% 0.04 in 0 W/m2
03:09 50 °F 48 °F 29.67 in WSW 2.6 mph 5 mph 93% 0.04 in 0 W/m2
03:14 50 °F 48 °F 29.67 in WSW 1.7 mph 4 mph 93% 0.03 in 0 W/m2
03:19 50 °F 48 °F 29.67 in WSW 1.4 mph 4 mph 93% 0.04 in 0 W/m2
03:24 50.1 °F 48.1 °F 29.67 in WSW 0.7 mph 4 mph 93% 0.04 in 0 W/m2
03:29 50.2 °F 48.2 °F 29.67 in WSW 2.1 mph 5 mph 93% 0.04 in 0 W/m2
03:34 50.2 °F 48.2 °F 29.67 in WSW 2.9 mph 6 mph 93% 0.04 in 0 W/m2
03:39 50.3 °F 48.3 °F 29.66 in WSW 4 mph 7 mph 93% 0.04 in 0 W/m2
03:44 50.4 °F 48.4 °F 29.66 in WSW 3.2 mph 6 mph 93% 0.03 in 0 W/m2
03:49 50.4 °F 48.4 °F 29.66 in WSW 3.7 mph 8 mph 93% 0.03 in 0 W/m2
03:54 50.4 °F 48.6 °F 29.66 in WSW 1.5 mph 7 mph 93.6% 0.03 in 0 W/m2
03:59 50.4 °F 48.7 °F 29.66 in WSW 3.3 mph 10 mph 94% 0.04 in 0 W/m2
04:04 50.4 °F 48.7 °F 29.66 in SW 3.4 mph 7 mph 94% 0.04 in 0 W/m2
04:09 50.4 °F 48.7 °F 29.66 in SW 2.8 mph 6 mph 94% 0.04 in 0 W/m2
04:14 50.4 °F 48.7 °F 29.66 in SW 2.5 mph 6 mph 94% 0.04 in 0 W/m2
04:19 50.4 °F 48.7 °F 29.66 in SW 3.8 mph 10 mph 94% 0.04 in 0 W/m2
04:24 50.5 °F 48.8 °F 29.65 in SW 3.2 mph 7 mph 94% 0.04 in 0 W/m2
04:29 50.5 °F 48.8 °F 29.66 in SW 2.9 mph 5 mph 94% 0.04 in 0 W/m2
04:34 50.5 °F 48.9 °F 29.65 in SW 2.8 mph 5 mph 94% 0.04 in 0 W/m2
04:39 50.5 °F 48.9 °F 29.66 in SW 2.1 mph 5 mph 94% 0.04 in 0 W/m2
04:44 50.5 °F 48.9 °F 29.66 in SW 1.5 mph 4 mph 94% 0.04 in 0 W/m2
04:49 50.5 °F 48.9 °F 29.65 in SW 3.1 mph 5 mph 94% 0.04 in 0 W/m2
04:54 50.5 °F 48.9 °F 29.65 in SW 3.6 mph 7 mph 94% 0.04 in 0 W/m2
04:59 50.5 °F 48.9 °F 29.66 in SW 3.9 mph 8 mph 94% 0.04 in 0 W/m2
05:04 50.5 °F 48.9 °F 29.66 in SW 3.2 mph 6 mph 94% 0.04 in 0 W/m2
05:09 50.5 °F 48.9 °F 29.65 in SW 2 mph 6 mph 94% 0.04 in 0 W/m2
05:14 50.5 °F 48.9 °F 29.65 in SW 3.3 mph 6 mph 94% 0.04 in 5 W/m2
05:19 50.5 °F 48.9 °F 29.65 in SW 3.3 mph 7 mph 94% 0.04 in 5 W/m2
05:24 50.5 °F 48.9 °F 29.65 in SW 2.4 mph 7 mph 94% 0.04 in 9 W/m2
05:29 50.5 °F 48.9 °F 29.65 in SW 3.6 mph 9 mph 94% 0.04 in 11 W/m2
05:34 50.5 °F 48.9 °F 29.65 in SW 3.4 mph 9 mph 94% 0.04 in 14 W/m2
05:39 50.4 °F 48.8 °F 29.65 in SW 4.3 mph 9 mph 94% 0.04 in 18 W/m2
05:44 50.4 °F 48.8 °F 29.65 in SW 4.1 mph 9 mph 94% 0.04 in 23 W/m2
05:49 50.4 °F 48.8 °F 29.65 in WSW 3.4 mph 8 mph 94% 0.04 in 28 W/m2
05:54 50.4 °F 48.8 °F 29.65 in WSW 2.7 mph 6 mph 94% 0.04 in 32 W/m2
05:59 50.5 °F 48.9 °F 29.65 in WSW 2.9 mph 6 mph 94% 0.04 in 30 W/m2
06:04 50.5 °F 48.9 °F 29.65 in WSW 2.8 mph 6 mph 94% 0.03 in 30 W/m2
06:09 50.5 °F 48.9 °F 29.65 in WSW 3.7 mph 6 mph 94% 0.03 in 35 W/m2
06:14 50.5 °F 48.9 °F 29.65 in WSW 2.3 mph 6 mph 94% 0.04 in 44 W/m2
06:19 50.5 °F 48.9 °F 29.65 in WSW 2.8 mph 6 mph 94% 0.04 in 44 W/m2
06:24 50.5 °F 48.9 °F 29.65 in WSW 3.7 mph 7 mph 94% 0.04 in 42 W/m2
06:29 50.5 °F 48.9 °F 29.64 in WSW 2.5 mph 9 mph 94% 0.04 in 40 W/m2
06:34 50.5 °F 48.9 °F 29.64 in WSW 3.2 mph 9 mph 94% 0.04 in 49 W/m2
06:39 50.6 °F 49 °F 29.64 in SW 2.8 mph 7 mph 94% 0.04 in 46 W/m2
06:44 50.6 °F 49 °F 29.64 in SW 4.9 mph 10 mph 94% 0.03 in 33 W/m2
06:49 50.6 °F 49 °F 29.64 in SW 3.5 mph 8 mph 94% 0.04 in 28 W/m2
06:54 50.5 °F 48.9 °F 29.64 in SW 3.3 mph 9 mph 94% 0.04 in 39 W/m2
06:59 50.5 °F 48.9 °F 29.64 in SW 2.9 mph 6 mph 94% 0.04 in 51 W/m2
07:04 50.5 °F 48.9 °F 29.64 in SW 5.5 mph 11 mph 94% 0.04 in 53 W/m2
07:09 50.5 °F 48.9 °F 29.64 in SW 2.6 mph 11 mph 94% 0.04 in 47 W/m2
07:14 50.6 °F 49 °F 29.64 in SW 3.6 mph 12 mph 94% 0.04 in 51 W/m2
07:19 50.7 °F 49.1 °F 29.64 in SW 4.1 mph 9 mph 94% 0.03 in 72 W/m2
07:24 50.7 °F 48.9 °F 29.63 in SW 4.5 mph 11 mph 93.5% 0.03 in 79 W/m2
07:29 50.7 °F 48.7 °F 29.63 in SW 5 mph 11 mph 93% 0.03 in 86 W/m2
07:34 50.8 °F 48.8 °F 29.64 in SW 4.4 mph 8 mph 93% 0.02 in 91 W/m2
07:39 50.9 °F 48.9 °F 29.63 in SW 4 mph 11 mph 93% 0.02 in 88 W/m2
07:44 50.9 °F 48.9 °F 29.64 in SW 5.3 mph 9 mph 93% 0.02 in 84 W/m2
07:49 50.9 °F 48.9 °F 29.63 in SW 3.8 mph 9 mph 93% 0.02 in 63 W/m2
07:54 50.9 °F 48.9 °F 29.63 in SW 4.9 mph 10 mph 93% 0.01 in 86 W/m2
07:59 51.1 °F 49.1 °F 29.63 in SW 2.9 mph 7 mph 93% 0.01 in 93 W/m2
08:04 51.2 °F 49.2 °F 29.63 in SW 4.2 mph 8 mph 93% 0.00 in 86 W/m2
08:09 51.2 °F 49.2 °F 29.63 in WSW 5.9 mph 11 mph 93% 0.00 in 83 W/m2
08:14 51.1 °F 49.1 °F 29.63 in SW 5.1 mph 11 mph 93% 0.00 in 111 W/m2
08:19 51.3 °F 49.3 °F 29.63 in SW 5.8 mph 13 mph 93% 0.00 in 113 W/m2
08:24 51.3 °F 49.3 °F 29.63 in WSW 3.6 mph 8 mph 93% 0.00 in 86 W/m2
08:29 51.3 °F 49.3 °F 29.63 in WSW 4.4 mph 9 mph 93% 0.00 in 81 W/m2
08:34 51.3 °F 49.3 °F 29.63 in SW 7.2 mph 13 mph 93% 0.00 in 69 W/m2
08:39 51.3 °F 49.3 °F 29.63 in WSW 5.5 mph 13 mph 93% 0.00 in 72 W/m2
08:44 51.4 °F 49.4 °F 29.63 in WSW 3.8 mph 8 mph 93% 0.00 in 67 W/m2
08:49 51.4 °F 49.5 °F 29.63 in WSW 6.1 mph 12 mph 93% 0.00 in 72 W/m2
08:54 51.4 °F 49.5 °F 29.63 in SW 5.2 mph 12 mph 93% 0.00 in 67 W/m2
08:59 51.4 °F 49.5 °F 29.63 in SW 4.2 mph 9 mph 93% 0.00 in 81 W/m2
09:04 51.5 °F 49.5 °F 29.63 in SW 7.3 mph 14 mph 93% 0.00 in 84 W/m2
09:09 51.6 °F 49.6 °F 29.63 in SW 4.6 mph 14 mph 93% 0.00 in 111 W/m2
09:14 51.8 °F 49.8 °F 29.63 in SW 4 mph 10 mph 93% 0.00 in 137 W/m2
09:19 51.8 °F 49.6 °F 29.63 in SW 7.2 mph 12 mph 92% 0.00 in 148 W/m2
09:24 52 °F 49.6 °F 29.63 in SW 5.1 mph 11 mph 92% 0.00 in 162 W/m2
09:29 52.2 °F 49.8 °F 29.63 in SW 5.9 mph 10 mph 92% 0.00 in 153 W/m2
09:34 52.3 °F 49.9 °F 29.63 in SW 3.6 mph 10 mph 92% 0.00 in 148 W/m2
09:39 52.4 °F 50.1 °F 29.63 in SW 3.9 mph 10 mph 92% 0.00 in 125 W/m2
09:44 52.4 °F 50.1 °F 29.63 in SW 6 mph 12 mph 92% 0.00 in 132 W/m2
09:49 52.5 °F 50.2 °F 29.63 in SW 5.8 mph 10 mph 92% 0.00 in 141 W/m2
09:54 52.5 °F 50.1 °F 29.63 in SW 8.7 mph 14 mph 91.6% 0.00 in 165 W/m2
09:59 52.6 °F 50.1 °F 29.63 in SW 4.4 mph 11 mph 91.1% 0.00 in 171 W/m2
10:04 52.9 °F 50.4 °F 29.63 in SW 2.9 mph 9 mph 91% 0.01 in 146 W/m2
10:09 53.1 °F 50.5 °F 29.63 in SSW 3.2 mph 9 mph 91% 0.01 in 158 W/m2
10:14 53.1 °F 50.6 °F 29.63 in SW 4.7 mph 9 mph 91% 0.01 in 153 W/m2
10:19 53.1 °F 50.5 °F 29.63 in SW 4.8 mph 9 mph 91% 0.01 in 172 W/m2
10:24 53.2 °F 50.7 °F 29.63 in SSW 3.2 mph 9 mph 91% 0.01 in 181 W/m2
10:29 53.3 °F 50.8 °F 29.63 in SW 4 mph 9 mph 91% 0.01 in 193 W/m2
10:34 53.3 °F 50.8 °F 29.63 in SW 5.8 mph 11 mph 90.8% 0.01 in 181 W/m2
10:39 53.4 °F 50.5 °F 29.63 in SW 4.3 mph 11 mph 90% 0.01 in 181 W/m2
10:44 53.4 °F 50.6 °F 29.63 in SW 4.2 mph 11 mph 90.2% 0.01 in 197 W/m2
10:49 53.4 °F 50.9 °F 29.63 in WSW 3.7 mph 8 mph 91% 0.01 in 174 W/m2
10:54 53.4 °F 50.9 °F 29.63 in WSW 3.3 mph 8 mph 91% 0.01 in 100 W/m2
10:59 53.4 °F 50.9 °F 29.63 in WSW 3.9 mph 9 mph 91% 0.02 in 79 W/m2
11:04 53.4 °F 50.9 °F 29.63 in WSW 3.4 mph 9 mph 91% 0.02 in 84 W/m2
11:09 53.4 °F 50.9 °F 29.63 in WSW 1.7 mph 7 mph 91% 0.02 in 97 W/m2
11:14 53.4 °F 50.9 °F 29.63 in WSW 1.6 mph 4 mph 91% 0.02 in 139 W/m2
11:19 53.4 °F 51 °F 29.63 in WSW 3.4 mph 9 mph 91.7% 0.02 in 160 W/m2
11:24 53.2 °F 50.8 °F 29.63 in WSW 6.2 mph 11 mph 91.3% 0.02 in 176 W/m2
11:29 53.1 °F 50.8 °F 29.63 in WSW 3.9 mph 7 mph 92% 0.02 in 130 W/m2
11:34 53.2 °F 50.9 °F 29.63 in SW 4.5 mph 8 mph 92% 0.02 in 174 W/m2
11:39 53.2 °F 50.9 °F 29.63 in SW 5.6 mph 13 mph 92% 0.03 in 230 W/m2
11:44 53.1 °F 50.7 °F 29.63 in SW 6.6 mph 12 mph 92% 0.03 in 243 W/m2
11:49 53.2 °F 50.9 °F 29.63 in WSW 4.2 mph 10 mph 92% 0.03 in 234 W/m2
11:54 53.5 °F 51.2 °F 29.63 in WSW 2.8 mph 8 mph 92.2% 0.03 in 258 W/m2
11:59 53.9 °F 51.9 °F 29.63 in WSW 2.3 mph 5 mph 93% 0.03 in 220 W/m2
12:04 54 °F 52 °F 29.63 in SW 4.3 mph 8 mph 93% 0.02 in 232 W/m2
12:09 53.8 °F 51.7 °F 29.63 in SW 4.8 mph 9 mph 92.9% 0.02 in 302 W/m2
12:14 54 °F 51.7 °F 29.63 in WSW 3.1 mph 7 mph 92.2% 0.02 in 302 W/m2
12:19 54.2 °F 51.9 °F 29.63 in WSW 5.1 mph 9 mph 92% 0.02 in 278 W/m2
12:24 54.4 °F 52.1 °F 29.63 in SW 3.3 mph 9 mph 92% 0.02 in 306 W/m2
12:29 54.8 °F 52.4 °F 29.63 in SW 2.8 mph 8 mph 92% 0.01 in 313 W/m2
12:34 54.9 °F 52.5 °F 29.63 in SW 5.5 mph 11 mph 92% 0.01 in 315 W/m2
12:39 54.6 °F 52.2 °F 29.63 in SW 5.6 mph 11 mph 91.7% 0.00 in 316 W/m2
12:44 54.8 °F 52.4 °F 29.63 in SSW 3.5 mph 8 mph 91.6% 0.00 in 345 W/m2
12:49 54.9 °F 52.5 °F 29.63 in SW 5.7 mph 12 mph 91.6% 0.00 in 362 W/m2
12:54 55 °F 52.6 °F 29.63 in SW 3.1 mph 7 mph 91.6% 0.00 in 309 W/m2
12:59 54.9 °F 52.5 °F 29.63 in SW 4.5 mph 8 mph 91.5% 0.00 in 274 W/m2
13:04 54.8 °F 52.3 °F 29.63 in SW 2.4 mph 8 mph 91% 0.00 in 202 W/m2
13:09 54.9 °F 52.6 °F 29.63 in SW 3 mph 7 mph 92% 0.01 in 265 W/m2
13:14 54.9 °F 52.4 °F 29.63 in WSW 4.5 mph 9 mph 91.7% 0.01 in 287 W/m2
13:19 55 °F 52.7 °F 29.63 in WSW 4 mph 9 mph 92% 0.01 in 267 W/m2
13:24 55 °F 52.7 °F 29.63 in WSW 5.7 mph 11 mph 92% 0.01 in 221 W/m2
13:29 55.1 °F 52.8 °F 29.63 in West 4.8 mph 9 mph 92% 0.02 in 132 W/m2
13:34 54.2 °F 51.7 °F 29.63 in WNW 5.6 mph 10 mph 91.1% 0.02 in 79 W/m2
13:39 53.5 °F 51 °F 29.63 in West 3.5 mph 9 mph 91% 0.02 in 221 W/m2
13:44 53.7 °F 51.3 °F 29.63 in West 3.1 mph 9 mph 91.5% 0.02 in 288 W/m2
13:49 54 °F 51.7 °F 29.63 in West 1 mph 5 mph 92% 0.02 in 464 W/m2
13:54 54.7 °F 52.3 °F 29.63 in West 0.4 mph 2 mph 92% 0.02 in 445 W/m2
13:59 54.9 °F 52.5 °F 29.63 in Calm   1 mph 92% 0.02 in 345 W/m2
14:04 55 °F 52.7 °F 29.63 in West 0.5 mph 3 mph 92% 0.02 in 188 W/m2
14:09 55.1 °F 52.8 °F 29.63 in West 0.8 mph 3 mph 92% 0.01 in 209 W/m2
14:14 55.3 °F 53 °F 29.63 in West 2.4 mph 5 mph 92% 0.01 in 246 W/m2
14:19 55.6 °F 53.2 °F 29.63 in West 4 mph 9 mph 92% 0.01 in 279 W/m2
14:24 55.7 °F 53.4 °F 29.63 in WSW 3.9 mph 9 mph 92% 0.01 in 480 W/m2
14:29 56.2 °F 53.7 °F 29.63 in West 5.1 mph 9 mph 91.1% 0.01 in 482 W/m2
14:34 56.6 °F 53.8 °F 29.63 in West 5.5 mph 10 mph 90.1% 0.00 in 478 W/m2
14:39 56.8 °F 53.7 °F 29.63 in WNW 4.9 mph 9 mph 89.1% 0.00 in 334 W/m2
14:44 56.9 °F 53.3 °F 29.63 in West 6.6 mph 12 mph 88% 0.00 in 214 W/m2
14:49 56.8 °F 53.1 °F 29.63 in West 5.6 mph 12 mph 87% 0.00 in 213 W/m2
14:54 56.7 °F 53 °F 29.63 in WSW 7.5 mph 13 mph 87% 0.00 in 206 W/m2
14:59 56.5 °F 52.3 °F 29.63 in SW 7.4 mph 13 mph 86% 0.00 in 308 W/m2
15:04 56.3 °F 52.3 °F 29.64 in SW 5.3 mph 11 mph 86.2% 0.00 in 336 W/m2
15:09 56.3 °F 52.5 °F 29.64 in SW 5.3 mph 11 mph 87% 0.00 in 381 W/m2
15:14 56.3 °F 52.5 °F 29.64 in SW 5.3 mph 12 mph 87% 0.00 in 350 W/m2
15:19 56.3 °F 52.9 °F 29.64 in SW 4.3 mph 8 mph 88% 0.00 in 302 W/m2
15:24 56.2 °F 52.8 °F 29.64 in SW 4.9 mph 9 mph 88% 0.00 in 190 W/m2
15:29 55.9 °F 52.5 °F 29.64 in SW 6.3 mph 11 mph 88% 0.00 in 251 W/m2
15:34 55.9 °F 52.4 °F 29.64 in SW 5 mph 11 mph 88% 0.00 in 281 W/m2
15:39 55.9 °F 52.5 °F 29.64 in SW 5.4 mph 9 mph 88% 0.00 in 299 W/m2
15:44 56.1 °F 52.7 °F 29.64 in SW 5.4 mph 9 mph 88% 0.00 in 309 W/m2
15:49 56.2 °F 52.8 °F 29.64 in SW 5.4 mph 10 mph 88% 0.00 in 306 W/m2
15:54 56.1 °F 52.7 °F 29.64 in WSW 6.2 mph 10 mph 88% 0.00 in 338 W/m2
15:59 56.3 °F 52.8 °F 29.64 in WSW 5.3 mph 10 mph 87.8% 0.00 in 320 W/m2
16:04 56.5 °F 52.7 °F 29.64 in SW 5.9 mph 11 mph 87% 0.00 in 183 W/m2
16:09 56.3 °F 52.5 °F 29.64 in WSW 6.2 mph 14 mph 86.9% 0.00 in 120 W/m2
16:14 56 °F 52.2 °F 29.64 in WSW 7.6 mph 14 mph 87% 0.00 in 239 W/m2
16:19 55.8 °F 52 °F 29.64 in WSW 6.8 mph 13 mph 87% 0.00 in 239 W/m2
16:24 55.8 °F 51.7 °F 29.64 in WSW 6.5 mph 11 mph 86.3% 0.00 in 221 W/m2
16:29 55.8 °F 52 °F 29.65 in West 7.1 mph 12 mph 86.8% 0.00 in 181 W/m2
16:34 55.8 °F 52 °F 29.65 in West 9.8 mph 21 mph 87% 0.00 in 137 W/m2
16:39 54.9 °F 51.1 °F 29.65 in West 8.6 mph 21 mph 87% 0.00 in 146 W/m2
16:44 54.4 °F 50.8 °F 29.65 in West 5.8 mph 12 mph 87.6% 0.00 in 142 W/m2
16:49 53.8 °F 50.5 °F 29.65 in WNW 10.2 mph 17 mph 88.4% 0.01 in 151 W/m2
16:54 53.4 °F 50.4 °F 29.66 in West 7 mph 16 mph 89.6% 0.01 in 146 W/m2
16:59 53.4 °F 50.5 °F 29.66 in WNW 5.8 mph 12 mph 90% 0.01 in 149 W/m2
17:04 53.4 °F 50.9 °F 29.66 in WNW 6.5 mph 11 mph 91% 0.01 in 165 W/m2
17:09 53.6 °F 51.1 °F 29.66 in WNW 6.6 mph 11 mph 91% 0.01 in 176 W/m2
17:14 53.6 °F 51.3 °F 29.66 in West 7.3 mph 13 mph 91.8% 0.01 in 183 W/m2
17:19 53.9 °F 51.5 °F 29.66 in West 3.6 mph 9 mph 92% 0.01 in 163 W/m2
17:24 54.1 °F 51.7 °F 29.66 in West 5 mph 11 mph 92% 0.01 in 171 W/m2
17:29 54.2 °F 51.9 °F 29.66 in WNW 4.7 mph 10 mph 92% 0.01 in 174 W/m2
17:34 54.3 °F 52 °F 29.66 in West 5.3 mph 11 mph 92% 0.01 in 167 W/m2
17:39 54.5 °F 52.2 °F 29.66 in West 4.6 mph 11 mph 92% 0.01 in 167 W/m2
17:44 54.6 °F 52.2 °F 29.66 in WNW 5.6 mph 10 mph 92% 0.01 in 188 W/m2
17:49 54.6 °F 52.3 °F 29.66 in WNW 6.7 mph 12 mph 92% 0.00 in 188 W/m2
17:54 54.8 °F 52.3 °F 29.66 in West 6.2 mph 11 mph 91.1% 0.00 in 171 W/m2
17:59 54.8 °F 52.2 °F 29.66 in West 6.9 mph 11 mph 91% 0.00 in 165 W/m2
18:04 54.8 °F 52 °F 29.66 in West 6.1 mph 10 mph 90.3% 0.00 in 192 W/m2
18:09 55 °F 52.2 °F 29.67 in West 6.3 mph 13 mph 90% 0.00 in 185 W/m2
18:14 55 °F 52 °F 29.67 in West 6.5 mph 12 mph 89.4% 0.00 in 185 W/m2
18:19 55 °F 51.8 °F 29.67 in West 7.2 mph 13 mph 89% 0.00 in 167 W/m2
18:24 55 °F 51.8 °F 29.67 in West 6.5 mph 10 mph 89% 0.00 in 116 W/m2
18:29 55 °F 51.7 °F 29.67 in West 6.1 mph 11 mph 89% 0.00 in 130 W/m2
18:34 54.9 °F 51.6 °F 29.67 in West 8.5 mph 13 mph 89% 0.00 in 171 W/m2
18:39 55 °F 51.7 °F 29.67 in West 5.1 mph 11 mph 88.9% 0.00 in 207 W/m2
18:44 55 °F 51.6 °F 29.67 in West 5.2 mph 11 mph 88% 0.00 in 176 W/m2
18:49 55.2 °F 51.8 °F 29.68 in West 6 mph 12 mph 88% 0.00 in 130 W/m2
18:54 55.2 °F 51.8 °F 29.68 in WSW 7.6 mph 13 mph 88% 0.00 in 113 W/m2
18:59 55 °F 51.3 °F 29.68 in West 5 mph 13 mph 87% 0.00 in 100 W/m2
19:04 55.2 °F 51.4 °F 29.68 in West 4.1 mph 9 mph 87% 0.00 in 107 W/m2
19:09 55.3 °F 51.5 °F 29.69 in WSW 3.7 mph 10 mph 87% 0.00 in 139 W/m2
19:14 55.4 °F 51.6 °F 29.69 in West 4.3 mph 8 mph 87% 0.00 in 165 W/m2
19:19 55.7 °F 51.7 °F 29.69 in West 3.7 mph 6 mph 86.6% 0.00 in 285 W/m2
19:24 55.8 °F 51.7 °F 29.69 in West 5.6 mph 9 mph 86% 0.00 in 127 W/m2
19:29 55.8 °F 51.7 °F 29.69 in West 5.8 mph 12 mph 86% 0.00 in 107 W/m2
19:34 55.8 °F 51.6 °F 29.70 in West 4.8 mph 10 mph 86% 0.00 in 65 W/m2
19:39 55.5 °F 51.3 °F 29.70 in West 5.1 mph 10 mph 85.8% 0.00 in 37 W/m2
19:44 55.2 °F 51 °F 29.70 in West 7.3 mph 16 mph 85.8% 0.00 in 25 W/m2
19:49 54.9 °F 50.7 °F 29.70 in West 3.2 mph 13 mph 85.8% 0.00 in 26 W/m2
19:54 54.8 °F 50.6 °F 29.70 in West 7.8 mph 13 mph 86% 0.00 in 25 W/m2
19:59 54.5 °F 50.4 °F 29.71 in West 7.7 mph 14 mph 86% 0.00 in 28 W/m2
20:04 54.3 °F 50.2 °F 29.71 in West 5.4 mph 10 mph 86% 0.00 in 37 W/m2
20:09 54.1 °F 50 °F 29.71 in West 6.4 mph 12 mph 86% 0.00 in 37 W/m2
20:14 54 °F 49.9 °F 29.71 in West 4.9 mph 12 mph 86% 0.00 in 33 W/m2
20:19 54 °F 49.8 °F 29.72 in WNW 3.8 mph 8 mph 86% 0.00 in 33 W/m2
20:24 53.7 °F 49.6 °F 29.72 in WNW 4.1 mph 9 mph 86% 0.00 in 30 W/m2
20:29 53.6 °F 49.5 °F 29.72 in West 2.7 mph 7 mph 86% 0.00 in 25 W/m2
20:34 53.4 °F 49.3 °F 29.72 in West 4 mph 9 mph 86% 0.00 in 19 W/m2
20:39 53.4 °F 49.3 °F 29.72 in West 2.5 mph 9 mph 86% 0.00 in 18 W/m2
20:44 53.4 °F 49.3 °F 29.72 in WNW 8.6 mph 15 mph 86% 0.00 in 16 W/m2
20:49 53.3 °F 49.5 °F 29.72 in WNW 5.3 mph 15 mph 86.8% 0.00 in 16 W/m2
20:54 53.2 °F 49.2 °F 29.73 in WNW 5.6 mph 10 mph 86.4% 0.00 in 16 W/m2
20:59 53.2 °F 49.5 °F 29.73 in West 3.1 mph 10 mph 87% 0.00 in 12 W/m2
21:04 53.1 °F 49.3 °F 29.73 in West 2.4 mph 10 mph 87% 0.00 in 11 W/m2
21:09 53 °F 49.2 °F 29.73 in WNW 3.9 mph 10 mph 87% 0.00 in 9 W/m2
21:14 52.9 °F 49.1 °F 29.73 in WNW 4.2 mph 9 mph 87% 0.00 in 7 W/m2
21:17 52.7 °F 48.9 °F 29.73 in West 3.5 mph 7 mph 87% 0.00 in 0 W/m2
21:34 52.5 °F 48.7 °F 29.74 in West 1.6 mph 4 mph 87% 0.00 in 0 W/m2
21:39 52.5 °F 48.7 °F 29.74 in West 1.5 mph 4 mph 87% 0.00 in 0 W/m2
21:41 52.4 °F 48.6 °F 29.74 in West 1.8 mph 4 mph 87% 0.00 in 0 W/m2
Bath Spa Weather
Compliments of Weather Underground - 2 mb